createdAt,value
2019-02-12T00:01:54.034Z,1.40
2019-02-12T00:06:59.221Z,1.67
2019-02-12T00:12:05.248Z,1.57
2019-02-12T00:17:10.771Z,1.80
2019-02-12T00:22:15.944Z,1.90
2019-02-12T00:27:21.135Z,1.70
2019-02-12T00:32:26.315Z,1.73
2019-02-12T00:37:31.553Z,1.90
2019-02-12T00:42:36.734Z,1.87
2019-02-12T00:47:41.954Z,2.00
2019-02-12T00:52:47.138Z,1.40
2019-02-12T00:57:52.677Z,1.70
2019-02-12T01:02:58.848Z,1.83
2019-02-12T01:08:04.023Z,1.50
2019-02-12T01:13:09.204Z,1.40
2019-02-12T01:18:14.426Z,1.40
2019-02-12T01:23:19.961Z,1.47
2019-02-12T01:28:25.514Z,2.20
2019-02-12T01:33:31.007Z,1.23
2019-02-12T01:38:36.569Z,1.40
2019-02-12T01:43:41.772Z,1.40
2019-02-12T01:48:47.335Z,1.27
2019-02-12T01:53:52.846Z,1.30
2019-02-12T01:58:58.107Z,1.33
2019-02-12T02:04:03.954Z,1.50
2019-02-12T02:09:09.145Z,1.30
2019-02-12T02:14:14.683Z,1.40
2019-02-12T02:19:20.225Z,1.30
2019-02-12T02:24:26.149Z,1.40
2019-02-12T02:29:31.659Z,1.37
2019-02-12T02:34:36.857Z,1.57
2019-02-12T02:39:42.077Z,1.03
2019-02-12T02:44:47.602Z,1.80
2019-02-12T02:49:52.753Z,1.10
2019-02-12T02:54:57.946Z,1.20
2019-02-12T03:00:03.140Z,1.40
2019-02-12T03:05:10.863Z,1.77
2019-02-12T03:10:16.432Z,1.33
2019-02-12T03:15:21.612Z,1.27
2019-02-12T03:20:27.143Z,1.30
2019-02-12T03:25:32.670Z,1.17
2019-02-12T03:30:38.236Z,1.30
2019-02-12T03:35:43.450Z,1.23
2019-02-12T03:40:48.936Z,2.07
2019-02-12T03:45:55.298Z,1.10
2019-02-12T03:51:00.513Z,1.13
2019-02-12T03:56:06.045Z,1.23
2019-02-12T04:01:11.216Z,1.30
2019-02-12T04:06:17.253Z,1.00
2019-02-12T04:11:24.335Z,1.30
2019-02-12T04:16:29.318Z,1.27
2019-02-12T04:21:34.847Z,1.00
2019-02-12T04:26:40.056Z,1.10
2019-02-12T04:31:45.244Z,2.00
2019-02-12T04:36:50.459Z,1.13
2019-02-12T04:41:55.649Z,1.40
2019-02-12T04:47:00.860Z,1.30
2019-02-12T04:52:06.362Z,1.20
2019-02-12T04:57:11.578Z,1.10
2019-02-12T05:02:17.149Z,1.30
2019-02-12T05:07:22.929Z,1.63
2019-02-12T05:12:28.407Z,1.40
2019-02-12T05:17:33.592Z,1.30
2019-02-12T05:22:43.730Z,1.33
2019-02-12T05:27:45.806Z,1.20
2019-02-12T05:32:50.998Z,1.57
2019-02-12T05:37:56.362Z,1.30
2019-02-12T05:43:01.925Z,1.47
2019-02-12T05:48:07.392Z,2.37
2019-02-12T05:53:12.610Z,1.73
2019-02-12T05:58:17.989Z,1.60
2019-02-12T06:03:23.558Z,1.40
2019-02-12T06:08:28.744Z,1.50
2019-02-12T06:13:33.953Z,1.60
2019-02-12T06:18:39.139Z,1.60
2019-02-12T06:23:44.735Z,1.47
2019-02-12T06:28:50.557Z,1.50
2019-02-12T06:33:56.164Z,1.87
2019-02-12T06:39:02.214Z,1.77
2019-02-12T06:44:08.510Z,1.83
2019-02-12T06:49:13.740Z,1.80
2019-02-12T06:54:19.000Z,2.10
2019-02-12T06:59:24.316Z,2.07
2019-02-12T07:04:30.377Z,1.70
2019-02-12T07:09:44.325Z,1.90
2019-02-12T07:15:28.015Z,2.00
2019-02-12T07:21:15.948Z,2.37
2019-02-12T07:26:55.210Z,2.30
2019-02-12T07:32:34.837Z,2.00
2019-02-12T07:38:18.930Z,2.20
2019-02-12T07:44:08.170Z,2.37
2019-02-12T07:49:49.856Z,2.40
2019-02-12T07:55:37.912Z,2.67
2019-02-12T08:01:00.426Z,2.90
2019-02-12T08:06:19.328Z,3.13
2019-02-12T08:12:33.019Z,2.80
2019-02-12T08:18:34.160Z,2.50
2019-02-12T08:23:54.773Z,2.63
2019-02-12T08:29:30.231Z,2.53
2019-02-12T08:35:09.430Z,2.73
2019-02-12T08:40:51.092Z,3.20
2019-02-12T08:46:41.195Z,1.97
2019-02-12T08:52:23.271Z,2.60
2019-02-12T08:58:00.857Z,1.83
2019-02-12T09:03:32.190Z,1.70
2019-02-12T09:08:54.810Z,1.63
2019-02-12T09:14:17.734Z,1.80
2019-02-12T09:19:39.172Z,1.60
2019-02-12T09:25:03.270Z,2.10
2019-02-12T09:30:34.540Z,1.53
2019-02-12T09:36:03.373Z,2.10
2019-02-12T09:41:19.454Z,1.80
2019-02-12T09:47:15.285Z,1.63
2019-02-12T09:53:04.307Z,1.50
2019-02-12T09:58:26.923Z,1.73
2019-02-12T10:04:07.993Z,2.07
2019-02-12T10:09:57.604Z,1.80
2019-02-12T10:15:36.711Z,2.00
2019-02-12T10:20:56.680Z,1.63
2019-02-12T10:26:06.639Z,1.67
2019-02-12T10:31:27.167Z,1.20
2019-02-12T10:36:32.386Z,1.40
2019-02-12T10:41:38.007Z,1.80
2019-02-12T10:46:43.624Z,1.43
2019-02-12T10:51:48.824Z,1.30
2019-02-12T10:56:54.013Z,1.50
2019-02-12T11:01:59.353Z,1.60
2019-02-12T11:07:04.547Z,1.40
2019-02-12T11:12:09.725Z,1.40
2019-02-12T11:17:15.196Z,1.40
2019-02-12T11:22:20.387Z,1.40
2019-02-12T11:27:25.589Z,1.43
2019-02-12T11:32:31.251Z,1.60
2019-02-12T11:37:36.468Z,1.83
2019-02-12T11:42:41.664Z,1.70
2019-02-12T11:47:47.651Z,2.00
2019-02-12T11:52:52.846Z,2.27
2019-02-12T11:57:58.121Z,2.10
2019-02-12T12:03:03.616Z,1.93
2019-02-12T12:08:08.812Z,1.60
2019-02-12T12:13:14.344Z,1.60
2019-02-12T12:18:19.905Z,1.87
2019-02-12T12:23:25.430Z,1.53
2019-02-12T12:28:30.643Z,1.73
2019-02-12T12:33:35.920Z,1.83
2019-02-12T12:38:41.503Z,1.80
2019-02-12T12:43:47.053Z,1.50
2019-02-12T12:48:53.109Z,1.90
2019-02-12T12:53:58.504Z,1.77
2019-02-12T12:59:04.015Z,2.00
2019-02-12T13:04:09.204Z,1.80
2019-02-12T13:09:14.375Z,1.90
2019-02-12T13:14:19.588Z,2.10
2019-02-12T13:19:25.501Z,1.70
2019-02-12T13:24:31.161Z,1.70
2019-02-12T13:29:36.723Z,1.70
2019-02-12T13:34:41.904Z,1.80
2019-02-12T13:39:47.140Z,1.90
2019-02-12T13:44:52.323Z,2.43
2019-02-12T13:49:59.277Z,2.03
2019-02-12T13:55:06.303Z,2.10
2019-02-12T14:00:13.416Z,1.97
2019-02-12T14:05:18.863Z,1.90
2019-02-12T14:10:24.454Z,2.07
2019-02-12T14:15:29.767Z,2.00
2019-02-12T14:20:35.490Z,1.90
2019-02-12T14:25:41.049Z,1.90
2019-02-12T14:30:46.596Z,1.77
2019-02-12T14:35:51.790Z,1.97
2019-02-12T14:40:57.116Z,1.70
2019-02-12T14:46:02.308Z,1.90
2019-02-12T14:51:07.836Z,2.00
2019-02-12T14:56:13.663Z,2.30
2019-02-12T15:01:18.828Z,2.10
2019-02-12T15:06:24.147Z,2.03
2019-02-12T15:11:29.680Z,2.00
2019-02-12T15:16:34.889Z,1.73
2019-02-12T15:21:40.862Z,2.00
2019-02-12T15:26:46.326Z,2.20
2019-02-12T15:31:51.503Z,2.10
2019-02-12T15:36:56.845Z,2.20
2019-02-12T15:42:02.028Z,2.40
2019-02-12T15:47:07.234Z,2.50
2019-02-12T15:52:12.760Z,2.20
2019-02-12T15:57:18.305Z,2.10
2019-02-12T16:02:23.833Z,2.30
2019-02-12T16:07:29.033Z,2.13
2019-02-12T16:12:34.610Z,2.43
2019-02-12T16:17:39.801Z,2.33
2019-02-12T16:22:45.150Z,2.40
2019-02-12T16:27:52.611Z,2.70
2019-02-12T16:32:58.421Z,2.80
2019-02-12T16:38:03.611Z,2.60
2019-02-12T16:43:08.804Z,2.37
2019-02-12T16:48:14.009Z,2.30
2019-02-12T16:53:19.377Z,2.20
2019-02-12T16:58:24.863Z,2.50
2019-02-12T17:03:30.069Z,2.70
2019-02-12T17:08:35.260Z,2.40
2019-02-12T17:13:40.803Z,2.33
2019-02-12T17:18:46.808Z,2.40
2019-02-12T17:23:52.272Z,2.10
2019-02-12T17:28:57.466Z,1.90
2019-02-12T17:34:02.685Z,2.20
2019-02-12T17:39:07.703Z,2.37
2019-02-12T17:44:14.688Z,2.40
2019-02-12T17:49:20.139Z,2.30
2019-02-12T17:54:26.765Z,2.60
2019-02-12T17:59:31.973Z,2.43
2019-02-12T18:04:37.477Z,2.93
2019-02-12T18:09:43.020Z,2.87
2019-02-12T18:14:48.264Z,2.70
2019-02-12T18:19:53.842Z,2.87
2019-02-12T18:24:59.115Z,3.10
2019-02-12T18:30:05.416Z,3.10
2019-02-12T18:35:10.669Z,3.10
2019-02-12T18:40:15.981Z,2.50
2019-02-12T18:45:21.483Z,3.30
2019-02-12T18:50:26.771Z,2.93
2019-02-12T18:55:32.336Z,2.97
2019-02-12T19:00:37.336Z,3.10
2019-02-12T19:05:43.910Z,2.97
2019-02-12T19:10:49.529Z,3.40
2019-02-12T19:15:55.160Z,2.60
2019-02-12T19:21:00.807Z,2.80
2019-02-12T19:26:06.141Z,3.10
2019-02-12T19:31:11.440Z,3.13
2019-02-12T19:36:17.158Z,3.40
2019-02-12T19:41:22.342Z,3.13
2019-02-12T19:46:27.629Z,2.90
2019-02-12T19:51:34.274Z,3.70
2019-02-12T19:56:39.882Z,3.50
2019-02-12T20:01:45.382Z,3.77
2019-02-12T20:06:50.924Z,4.80
2019-02-12T20:11:56.112Z,4.60
2019-02-12T20:17:01.329Z,5.00
2019-02-12T20:22:06.848Z,5.00
2019-02-12T20:27:12.518Z,4.50
2019-02-12T20:32:17.718Z,4.07
2019-02-12T20:37:22.946Z,4.20
2019-02-12T20:42:28.142Z,3.53
2019-02-12T20:47:33.353Z,3.73
2019-02-12T20:52:39.595Z,3.77
2019-02-12T20:57:45.273Z,3.57
2019-02-12T21:02:50.481Z,3.90
2019-02-12T21:07:58.063Z,3.83
2019-02-12T21:13:03.268Z,3.80
2019-02-12T21:18:08.465Z,4.03
2019-02-12T21:23:13.996Z,3.97
2019-02-12T21:28:19.579Z,4.17
2019-02-12T21:33:24.918Z,4.53
2019-02-12T21:38:30.575Z,4.87
2019-02-12T21:43:36.174Z,5.17
2019-02-12T21:48:41.378Z,5.43
2019-02-12T21:53:46.683Z,6.07
2019-02-12T21:58:52.067Z,6.43
2019-02-12T22:03:57.535Z,6.50
2019-02-12T22:09:02.723Z,7.00
2019-02-12T22:14:07.923Z,7.33
2019-02-12T22:19:13.246Z,7.53
2019-02-12T22:24:18.460Z,7.77
2019-02-12T22:29:23.762Z,7.60
2019-02-12T22:34:29.424Z,7.30
2019-02-12T22:39:37.164Z,7.93
2019-02-12T22:44:42.656Z,8.13
2019-02-12T22:49:47.931Z,8.90
2019-02-12T22:54:53.850Z,7.93
2019-02-12T22:59:59.059Z,9.13
2019-02-12T23:05:04.286Z,8.87
2019-02-12T23:10:09.544Z,8.63
2019-02-12T23:15:14.742Z,9.37
2019-02-12T23:20:21.977Z,8.70
2019-02-12T23:25:28.878Z,8.10
2019-02-12T23:30:34.079Z,8.97
2019-02-12T23:35:39.823Z,8.23
2019-02-12T23:40:45.127Z,8.20
2019-02-12T23:45:50.333Z,7.67
2019-02-12T23:50:55.874Z,7.70
2019-02-12T23:56:01.081Z,8.07
